createdAt,value
2019-02-07T00:02:18.348Z,20.77
2019-02-07T00:04:49.774Z,21.70
2019-02-07T00:07:21.529Z,22.15
2019-02-07T00:09:52.915Z,20.50
2019-02-07T00:12:24.499Z,20.92
2019-02-07T00:14:55.932Z,20.97
2019-02-07T00:17:27.561Z,22.05
2019-02-07T00:19:59.008Z,19.85
2019-02-07T00:22:30.442Z,21.57
2019-02-07T00:25:01.946Z,21.25
2019-02-07T00:27:33.572Z,20.57
2019-02-07T00:30:06.345Z,19.17
2019-02-07T00:32:37.719Z,20.25
2019-02-07T00:35:10.156Z,18.70
2019-02-07T00:37:41.575Z,20.60
2019-02-07T00:40:14.689Z,21.70
2019-02-07T00:42:46.428Z,20.50
2019-02-07T00:45:18.198Z,21.02
2019-02-07T00:47:50.123Z,21.25
2019-02-07T00:50:22.404Z,20.75
2019-02-07T00:52:53.915Z,21.02
2019-02-07T00:55:25.788Z,18.32
2019-02-07T00:57:57.091Z,19.82
2019-02-07T01:00:28.577Z,18.82
2019-02-07T01:03:00.082Z,20.20
2019-02-07T01:05:31.539Z,20.62
2019-02-07T01:08:03.343Z,18.55
2019-02-07T01:10:34.754Z,20.77
2019-02-07T01:13:06.448Z,20.35
2019-02-07T01:15:37.917Z,18.70
2019-02-07T01:18:09.967Z,19.75
2019-02-07T01:20:41.850Z,20.15
2019-02-07T01:23:13.293Z,19.95
2019-02-07T01:25:46.474Z,18.92
2019-02-07T01:28:17.961Z,20.30
2019-02-07T01:30:49.439Z,18.57
2019-02-07T01:33:21.237Z,20.45
2019-02-07T01:35:53.067Z,19.75
2019-02-07T01:38:24.497Z,20.30
2019-02-07T01:40:55.956Z,20.32
2019-02-07T01:43:27.417Z,20.08
2019-02-07T01:45:59.191Z,19.90
2019-02-07T01:48:30.629Z,20.00
2019-02-07T01:51:02.177Z,19.20
2019-02-07T01:53:33.628Z,18.50
2019-02-07T01:56:05.175Z,19.87
2019-02-07T01:58:36.959Z,19.60
2019-02-07T02:01:08.492Z,19.82
2019-02-07T02:03:40.040Z,19.50
2019-02-07T02:06:11.548Z,18.95
2019-02-07T02:08:43.174Z,18.37
2019-02-07T02:11:16.033Z,18.12
2019-02-07T02:13:47.501Z,19.50
2019-02-07T02:16:18.983Z,18.92
2019-02-07T02:18:50.461Z,18.70
2019-02-07T02:21:21.923Z,18.50
2019-02-07T02:23:53.647Z,19.50
2019-02-07T02:26:25.097Z,19.40
2019-02-07T02:28:56.515Z,19.70
2019-02-07T02:31:27.952Z,20.52
2019-02-07T02:33:59.374Z,18.23
2019-02-07T02:36:31.114Z,17.82
2019-02-07T02:39:02.806Z,19.65
2019-02-07T02:41:35.899Z,19.07
2019-02-07T02:44:07.383Z,19.42
2019-02-07T02:46:38.881Z,19.17
2019-02-07T02:49:10.698Z,18.00
2019-02-07T02:51:42.117Z,20.32
2019-02-07T02:54:35.023Z,29.90
2019-02-07T02:57:07.238Z,31.45
2019-02-07T02:59:39.560Z,22.55
2019-02-07T03:02:47.998Z,22.40
2019-02-07T03:05:47.266Z,19.55
2019-02-07T03:08:40.255Z,19.73
2019-02-07T03:11:41.230Z,18.85
2019-02-07T03:14:34.570Z,19.92
2019-02-07T03:17:31.126Z,22.55
2019-02-07T03:20:36.341Z,21.45
2019-02-07T03:23:31.435Z,19.62
2019-02-07T03:26:15.693Z,22.55
2019-02-07T03:29:15.221Z,21.25
2019-02-07T03:31:57.995Z,20.00
2019-02-07T03:34:43.203Z,18.40
2019-02-07T03:37:42.338Z,17.65
2019-02-07T03:40:31.782Z,17.77
2019-02-07T03:43:34.299Z,19.70
2019-02-07T03:46:30.687Z,19.37
2019-02-07T03:49:10.183Z,18.12
2019-02-07T03:51:59.954Z,21.15
2019-02-07T03:54:45.851Z,20.30
2019-02-07T03:57:39.004Z,19.65
2019-02-07T04:00:21.418Z,21.60
2019-02-07T04:03:04.837Z,20.68
2019-02-07T04:06:13.142Z,19.87
2019-02-07T04:09:06.002Z,23.45
2019-02-07T04:11:54.958Z,21.35
2019-02-07T04:14:54.097Z,21.15
2019-02-07T04:17:40.918Z,18.60
2019-02-07T04:20:34.633Z,19.45
2019-02-07T04:23:19.279Z,21.60
2019-02-07T04:26:09.617Z,21.82
2019-02-07T04:28:50.484Z,21.00
2019-02-07T04:31:40.956Z,19.67
2019-02-07T04:34:49.436Z,20.82
2019-02-07T04:37:54.523Z,18.80
2019-02-07T04:40:38.632Z,18.95
2019-02-07T04:43:27.398Z,18.42
2019-02-07T04:46:29.742Z,19.92
2019-02-07T04:49:18.822Z,19.77
2019-02-07T04:52:10.818Z,19.42
2019-02-07T04:55:00.985Z,18.85
2019-02-07T04:57:45.541Z,19.65
2019-02-07T05:00:40.243Z,18.40
2019-02-07T05:03:40.088Z,16.17
2019-02-07T05:06:27.678Z,18.37
2019-02-07T05:09:10.097Z,17.32
2019-02-07T05:12:00.655Z,17.57
2019-02-07T05:14:43.794Z,17.98
2019-02-07T05:17:27.353Z,16.70
2019-02-07T05:20:25.602Z,16.30
2019-02-07T05:23:28.959Z,17.07
2019-02-07T05:26:38.201Z,19.25
2019-02-07T05:29:27.334Z,16.55
2019-02-07T05:32:23.692Z,19.23
2019-02-07T05:35:14.082Z,17.23
2019-02-07T05:38:02.853Z,17.30
2019-02-07T05:40:52.076Z,16.48
2019-02-07T05:43:49.956Z,15.80
2019-02-07T05:46:53.918Z,17.30
2019-02-07T05:49:48.093Z,15.13
2019-02-07T05:52:48.022Z,17.27
2019-02-07T05:55:38.389Z,15.95
2019-02-07T05:58:37.543Z,16.30
2019-02-07T06:01:26.782Z,16.70
2019-02-07T06:04:23.840Z,15.32
2019-02-07T06:07:17.402Z,16.27
2019-02-07T06:10:11.010Z,16.05
2019-02-07T06:13:17.051Z,15.40
2019-02-07T06:16:10.833Z,18.75
2019-02-07T06:19:04.889Z,16.50
2019-02-07T06:21:54.217Z,15.70
2019-02-07T06:24:53.803Z,18.27
2019-02-07T06:27:46.979Z,16.87
2019-02-07T06:30:46.755Z,16.35
2019-02-07T06:33:35.821Z,16.23
2019-02-07T06:36:22.310Z,16.73
2019-02-07T06:39:28.808Z,16.90
2019-02-07T06:42:17.566Z,16.20
2019-02-07T06:45:14.692Z,17.42
2019-02-07T06:48:11.166Z,16.40
2019-02-07T06:51:01.537Z,16.30
2019-02-07T06:53:50.305Z,17.87
2019-02-07T06:56:44.046Z,16.77
2019-02-07T06:59:46.226Z,16.75
2019-02-07T07:02:36.530Z,15.10
2019-02-07T07:05:26.236Z,15.08
2019-02-07T07:08:14.992Z,16.25
2019-02-07T07:11:02.845Z,16.32
2019-02-07T07:13:54.375Z,16.05
2019-02-07T07:16:35.518Z,18.10
2019-02-07T07:19:29.206Z,17.92
2019-02-07T07:22:20.190Z,16.57
2019-02-07T07:25:10.878Z,14.93
2019-02-07T07:27:58.291Z,16.35
2019-02-07T07:30:48.819Z,16.25
2019-02-07T07:33:45.559Z,17.50
2019-02-07T07:36:36.367Z,16.32
2019-02-07T07:39:32.224Z,16.93
2019-02-07T07:42:22.537Z,16.45
2019-02-07T07:45:16.700Z,14.50
2019-02-07T07:48:22.276Z,15.30
2019-02-07T07:51:03.439Z,15.70
2019-02-07T07:53:52.304Z,15.88
2019-02-07T07:56:42.557Z,15.90
2019-02-07T07:59:45.119Z,15.40
2019-02-07T08:02:23.498Z,16.17
2019-02-07T08:05:10.325Z,16.70
2019-02-07T08:07:51.683Z,16.00
2019-02-07T08:10:45.249Z,14.87
2019-02-07T08:13:37.274Z,15.80
2019-02-07T08:16:27.762Z,13.90
2019-02-07T08:19:17.272Z,15.38
2019-02-07T08:22:14.268Z,15.60
2019-02-07T08:25:04.548Z,14.93
2019-02-07T08:28:03.733Z,13.43
2019-02-07T08:30:52.839Z,15.75
2019-02-07T08:33:40.342Z,15.13
2019-02-07T08:36:45.818Z,14.90
2019-02-07T08:39:48.028Z,14.58
2019-02-07T08:42:44.465Z,14.87
2019-02-07T08:45:47.037Z,14.20
2019-02-07T08:48:49.602Z,14.15
2019-02-07T08:51:46.280Z,13.95
2019-02-07T08:54:48.847Z,13.85
2019-02-07T08:57:48.128Z,13.00
2019-02-07T09:00:42.016Z,15.05
2019-02-07T09:03:38.266Z,13.10
2019-02-07T09:06:28.654Z,12.73
2019-02-07T09:09:22.269Z,12.75
2019-02-07T09:12:12.602Z,13.32
2019-02-07T09:15:08.605Z,13.50
2019-02-07T09:17:48.474Z,13.60
2019-02-07T09:20:42.568Z,14.23
2019-02-07T09:23:32.829Z,13.32
2019-02-07T09:26:33.832Z,12.25
2019-02-07T09:29:27.866Z,12.93
2019-02-07T09:32:18.321Z,13.20
2019-02-07T09:34:58.069Z,13.83
2019-02-07T09:37:47.027Z,13.20
2019-02-07T09:40:44.399Z,13.50
2019-02-07T09:43:33.230Z,14.40
2019-02-07T09:46:30.497Z,16.12
2019-02-07T09:49:31.051Z,13.95
2019-02-07T09:52:14.616Z,12.45
2019-02-07T09:55:03.445Z,11.22
2019-02-07T09:57:42.923Z,12.93
2019-02-07T10:00:46.080Z,12.75
2019-02-07T10:03:33.922Z,15.28
2019-02-07T10:06:36.495Z,14.90
2019-02-07T10:09:28.507Z,14.30
2019-02-07T10:12:26.940Z,14.40
2019-02-07T10:15:18.001Z,13.18
2019-02-07T10:18:08.929Z,15.25
2019-02-07T10:21:14.584Z,13.90
2019-02-07T10:24:07.516Z,14.28
2019-02-07T10:27:05.552Z,14.45
2019-02-07T10:30:05.053Z,14.07
2019-02-07T10:32:58.364Z,14.53
2019-02-07T10:35:48.766Z,15.20
2019-02-07T10:38:44.943Z,15.65
2019-02-07T10:41:38.179Z,13.75
2019-02-07T10:44:31.723Z,13.28
2019-02-07T10:47:20.799Z,15.20
2019-02-07T10:50:19.528Z,16.23
2019-02-07T10:53:19.238Z,18.12
2019-02-07T10:56:21.618Z,16.60
2019-02-07T10:59:12.131Z,23.55
2019-02-07T11:01:52.278Z,19.52
2019-02-07T11:04:51.487Z,19.20
2019-02-07T11:07:44.889Z,20.25
2019-02-07T11:10:34.106Z,18.02
2019-02-07T11:13:32.963Z,22.05
2019-02-07T11:16:15.214Z,16.15
2019-02-07T11:19:04.112Z,17.42
2019-02-07T11:22:06.299Z,19.32
2019-02-07T11:25:05.538Z,24.72
2019-02-07T11:28:10.238Z,17.00
2019-02-07T11:30:53.149Z,15.15
2019-02-07T11:33:33.475Z,15.30
2019-02-07T11:36:32.219Z,14.43
2019-02-07T11:39:31.709Z,15.10
2019-02-07T11:42:27.896Z,16.17
2019-02-07T11:45:27.585Z,11.70
2019-02-07T11:48:29.923Z,12.23
2019-02-07T11:51:11.316Z,12.15
2019-02-07T11:53:59.992Z,13.72
2019-02-07T11:56:42.237Z,13.48
2019-02-07T11:59:32.648Z,16.02
2019-02-07T12:02:19.318Z,17.02
2019-02-07T12:05:08.372Z,15.78
2019-02-07T12:07:57.468Z,16.67
2019-02-07T12:10:54.536Z,15.80
2019-02-07T12:13:41.888Z,15.30
2019-02-07T12:16:30.994Z,14.05
2019-02-07T12:19:18.192Z,15.75
2019-02-07T12:22:02.094Z,16.55
2019-02-07T12:24:51.132Z,16.85
2019-02-07T12:27:31.788Z,17.75
2019-02-07T12:30:24.868Z,15.78
2019-02-07T12:33:05.937Z,16.15
2019-02-07T12:35:50.418Z,17.05
2019-02-07T12:38:35.752Z,16.00
2019-02-07T12:41:26.074Z,16.27
2019-02-07T12:44:32.885Z,15.40
2019-02-07T12:47:33.222Z,17.65
2019-02-07T12:50:22.676Z,17.50
2019-02-07T12:53:11.527Z,16.85
2019-02-07T12:56:09.578Z,16.52
2019-02-07T12:58:59.142Z,18.50
2019-02-07T13:01:49.825Z,16.97
2019-02-07T13:04:49.466Z,19.87
2019-02-07T13:07:45.039Z,17.77
2019-02-07T13:10:44.899Z,18.40
2019-02-07T13:13:32.148Z,18.48
2019-02-07T13:16:17.545Z,18.85
2019-02-07T13:19:16.015Z,19.95
2019-02-07T13:22:24.660Z,18.48
2019-02-07T13:25:13.616Z,18.75
2019-02-07T13:28:03.097Z,18.48
2019-02-07T13:30:59.940Z,19.73
2019-02-07T13:33:59.582Z,17.23
2019-02-07T13:36:47.879Z,16.95
2019-02-07T13:39:47.367Z,17.65
2019-02-07T13:42:38.057Z,18.80
2019-02-07T13:45:27.579Z,17.98
2019-02-07T13:48:18.227Z,18.25
2019-02-07T13:51:08.932Z,18.75
2019-02-07T13:54:02.593Z,22.27
2019-02-07T13:56:51.515Z,17.52
2019-02-07T14:00:00.413Z,16.42
2019-02-07T14:02:49.520Z,19.05
2019-02-07T14:05:38.597Z,17.67
2019-02-07T14:08:18.988Z,17.10
2019-02-07T14:11:06.115Z,17.20
2019-02-07T14:13:50.524Z,17.20
2019-02-07T14:16:53.654Z,18.62
2019-02-07T14:19:43.942Z,17.23
2019-02-07T14:22:35.147Z,18.20
2019-02-07T14:25:24.207Z,15.85
2019-02-07T14:28:18.400Z,18.15
2019-02-07T14:31:11.897Z,17.05
2019-02-07T14:33:54.889Z,16.80
2019-02-07T14:36:45.644Z,15.83
2019-02-07T14:39:27.848Z,17.80
2019-02-07T14:42:16.779Z,16.73
2019-02-07T14:45:05.998Z,16.00
2019-02-07T14:47:37.986Z,18.00
2019-02-07T14:50:15.090Z,15.75
2019-02-07T14:52:44.378Z,16.80
2019-02-07T14:55:22.046Z,17.85
2019-02-07T14:57:53.903Z,17.42
2019-02-07T15:00:40.519Z,16.10
2019-02-07T15:03:12.410Z,16.45
2019-02-07T15:05:45.668Z,14.23
2019-02-07T15:08:17.979Z,4.78
2019-02-07T15:10:58.573Z,3.95
2019-02-07T15:13:30.543Z,3.25
2019-02-07T15:16:02.375Z,3.98
2019-02-07T15:18:34.257Z,10.28
2019-02-07T15:21:06.084Z,11.93
2019-02-07T15:23:41.300Z,13.35
2019-02-07T15:26:13.450Z,14.63
2019-02-07T15:28:47.823Z,14.83
2019-02-07T15:31:19.814Z,16.25
2019-02-07T15:33:52.079Z,17.48
2019-02-07T15:36:24.441Z,19.17
2019-02-07T15:38:59.724Z,18.42
2019-02-07T15:41:31.671Z,16.75
2019-02-07T15:44:04.713Z,17.05
2019-02-07T15:46:37.881Z,19.55
2019-02-07T15:49:09.810Z,19.50
2019-02-07T15:51:41.728Z,20.68
2019-02-07T15:54:13.686Z,19.40
2019-02-07T15:56:45.400Z,21.33
2019-02-07T15:59:28.624Z,18.85
2019-02-07T16:02:30.610Z,20.50
2019-02-07T16:05:16.478Z,18.57
2019-02-07T16:07:48.204Z,19.20
2019-02-07T16:10:20.360Z,20.80
2019-02-07T16:13:23.655Z,18.70
2019-02-07T16:15:57.298Z,20.20
2019-02-07T16:18:28.920Z,19.50
2019-02-07T16:21:03.756Z,20.88
2019-02-07T16:23:37.857Z,21.23
2019-02-07T16:26:09.802Z,22.05
2019-02-07T16:28:41.543Z,19.52
2019-02-07T16:31:13.290Z,21.97
2019-02-07T16:33:45.093Z,22.60
2019-02-07T16:36:17.326Z,20.97
2019-02-07T16:38:49.035Z,25.08
2019-02-07T16:41:20.680Z,25.40
2019-02-07T16:43:52.241Z,24.57
2019-02-07T16:46:23.980Z,24.20
2019-02-07T16:48:55.567Z,22.35
2019-02-07T16:51:27.512Z,25.30
2019-02-07T16:53:59.280Z,22.62
2019-02-07T16:56:34.020Z,23.05
2019-02-07T16:59:05.746Z,23.10
2019-02-07T17:01:37.480Z,20.57
2019-02-07T17:04:09.942Z,21.87
2019-02-07T17:06:41.660Z,22.35
2019-02-07T17:09:20.326Z,21.07
2019-02-07T17:11:52.072Z,22.95
2019-02-07T17:14:26.925Z,21.93
2019-02-07T17:17:00.227Z,23.15
2019-02-07T17:19:31.659Z,21.95
2019-02-07T17:22:03.325Z,24.10
2019-02-07T17:24:34.992Z,22.62
2019-02-07T17:27:06.784Z,22.67
2019-02-07T17:29:43.022Z,22.42
2019-02-07T17:32:14.521Z,21.77
2019-02-07T17:34:46.059Z,20.92
2019-02-07T17:37:17.628Z,19.55
2019-02-07T17:39:49.507Z,19.87
2019-02-07T17:42:21.543Z,19.17
2019-02-07T17:44:55.040Z,18.23
2019-02-07T17:47:30.090Z,18.75
2019-02-07T17:50:02.458Z,17.00
2019-02-07T17:52:34.953Z,18.82
2019-02-07T17:55:13.272Z,16.32
2019-02-07T17:57:47.755Z,18.32
2019-02-07T18:00:39.917Z,18.52
2019-02-07T18:03:14.037Z,20.40
2019-02-07T18:05:46.473Z,19.90
2019-02-07T18:08:19.456Z,21.27
2019-02-07T18:10:51.686Z,21.17
2019-02-07T18:13:24.250Z,18.07
2019-02-07T18:15:58.374Z,16.75
2019-02-07T18:18:32.093Z,18.30
2019-02-07T18:21:04.240Z,19.35
2019-02-07T18:23:36.557Z,18.40
2019-02-07T18:26:08.829Z,17.62
2019-02-07T18:28:40.711Z,17.85
2019-02-07T18:31:12.892Z,15.78
2019-02-07T18:33:46.101Z,15.32
2019-02-07T18:36:19.272Z,16.80
2019-02-07T18:38:54.924Z,13.88
2019-02-07T18:41:33.069Z,11.18
2019-02-07T18:44:08.023Z,11.22
2019-02-07T18:46:45.410Z,10.65
2019-02-07T18:49:24.055Z,10.88
2019-02-07T18:51:58.698Z,10.00
2019-02-07T18:54:33.510Z,9.43
2019-02-07T18:57:10.032Z,8.60
2019-02-07T18:59:45.776Z,8.70
2019-02-07T19:02:22.628Z,9.65
2019-02-07T19:04:58.573Z,10.65
2019-02-07T19:07:42.512Z,10.88
2019-02-07T19:10:23.174Z,10.75
2019-02-07T19:12:54.725Z,11.03
2019-02-07T19:15:43.763Z,9.55
2019-02-07T19:18:21.199Z,8.35
2019-02-07T19:20:59.616Z,8.48
2019-02-07T19:23:31.147Z,9.73
2019-02-07T19:26:13.423Z,8.68
2019-02-07T19:28:46.075Z,9.85
2019-02-07T19:31:22.095Z,7.25
2019-02-07T19:33:54.588Z,8.30
2019-02-07T19:36:31.047Z,8.65
2019-02-07T19:39:06.347Z,8.73
2019-02-07T19:41:48.526Z,9.00
2019-02-07T19:44:36.643Z,7.83
2019-02-07T19:47:10.506Z,7.67
2019-02-07T19:49:51.302Z,5.80
2019-02-07T19:52:28.094Z,6.80
2019-02-07T19:55:08.164Z,5.75
2019-02-07T19:57:53.074Z,5.90
2019-02-07T20:00:39.385Z,5.37
2019-02-07T20:03:15.470Z,5.95
2019-02-07T20:05:54.562Z,6.28
2019-02-07T20:08:27.767Z,6.53
2019-02-07T20:11:02.884Z,5.20
2019-02-07T20:13:35.291Z,5.05
2019-02-07T20:16:07.896Z,4.67
2019-02-07T20:18:41.534Z,4.72
2019-02-07T20:21:14.300Z,4.95
2019-02-07T20:23:46.842Z,5.95
2019-02-07T20:26:22.812Z,6.03
2019-02-07T20:28:57.996Z,4.75
2019-02-07T20:31:30.830Z,4.92
2019-02-07T20:34:03.383Z,5.37
2019-02-07T20:36:38.716Z,5.55
2019-02-07T20:39:11.678Z,4.87
2019-02-07T20:41:44.655Z,4.72
2019-02-07T20:44:20.701Z,5.25
2019-02-07T20:46:52.199Z,5.37
2019-02-07T20:49:25.350Z,5.08
2019-02-07T20:52:04.187Z,5.92
2019-02-07T20:54:38.117Z,5.95
2019-02-07T20:57:12.672Z,4.45
2019-02-07T20:59:44.254Z,4.33
2019-02-07T21:02:16.831Z,4.45
2019-02-07T21:04:49.829Z,5.83
2019-02-07T21:07:23.014Z,6.00
2019-02-07T21:09:58.233Z,6.08
2019-02-07T21:12:34.134Z,6.15
2019-02-07T21:15:10.745Z,6.62
2019-02-07T21:17:42.932Z,6.75
2019-02-07T21:20:20.175Z,5.25
2019-02-07T21:22:53.091Z,7.05
2019-02-07T21:25:29.499Z,5.80
2019-02-07T21:28:01.354Z,6.45
2019-02-07T21:30:34.026Z,8.70
2019-02-07T21:33:06.864Z,7.25
2019-02-07T21:35:39.617Z,7.03
2019-02-07T21:38:11.846Z,5.42
2019-02-07T21:40:44.182Z,7.28
2019-02-07T21:43:16.428Z,6.80
2019-02-07T21:45:48.862Z,5.10
2019-02-07T21:48:29.031Z,3.90
2019-02-07T21:51:01.398Z,5.22
2019-02-07T21:53:35.258Z,3.80
2019-02-07T21:56:10.224Z,3.35
2019-02-07T21:58:42.302Z,2.87
2019-02-07T22:01:14.337Z,3.72
2019-02-07T22:03:46.133Z,3.22
2019-02-07T22:06:18.284Z,2.95
2019-02-07T22:08:50.298Z,3.47
2019-02-07T22:11:22.116Z,3.33
2019-02-07T22:13:57.178Z,3.20
2019-02-07T22:16:32.001Z,3.50
2019-02-07T22:19:04.335Z,3.30
2019-02-07T22:21:37.335Z,3.80
2019-02-07T22:24:09.763Z,3.30
2019-02-07T22:26:42.320Z,3.67
2019-02-07T22:29:14.745Z,3.35
2019-02-07T22:31:46.761Z,3.87
2019-02-07T22:34:19.431Z,3.25
2019-02-07T22:36:51.078Z,3.60
2019-02-07T22:39:23.374Z,3.12
2019-02-07T22:41:54.974Z,3.00
2019-02-07T22:44:26.418Z,3.83
2019-02-07T22:46:59.670Z,4.03
2019-02-07T22:49:31.872Z,3.83
2019-02-07T22:52:04.078Z,3.42
2019-02-07T22:54:36.587Z,3.50
2019-02-07T22:57:11.505Z,4.53
2019-02-07T22:59:44.365Z,4.03
2019-02-07T23:02:18.800Z,3.30
2019-02-07T23:04:51.274Z,3.95
2019-02-07T23:07:23.818Z,3.35
2019-02-07T23:09:58.145Z,4.60
2019-02-07T23:12:31.817Z,4.15
2019-02-07T23:15:05.919Z,4.75
2019-02-07T23:17:41.172Z,4.28
2019-02-07T23:20:13.652Z,4.10
2019-02-07T23:22:48.344Z,4.75
2019-02-07T23:25:20.840Z,4.37
2019-02-07T23:27:56.118Z,4.60
2019-02-07T23:30:28.830Z,4.40
2019-02-07T23:33:01.096Z,4.70
2019-02-07T23:35:33.191Z,5.12
2019-02-07T23:38:08.963Z,4.10
2019-02-07T23:40:44.696Z,4.50
2019-02-07T23:43:16.718Z,4.17
2019-02-07T23:45:48.942Z,5.30
2019-02-07T23:48:20.550Z,5.90
2019-02-07T23:50:52.133Z,3.98
2019-02-07T23:53:31.674Z,4.05
2019-02-07T23:56:07.307Z,4.17
2019-02-07T23:58:40.016Z,4.85
